createdAt,value
2019-05-02T00:01:44.593Z,26.63
2019-05-02T00:04:20.116Z,29.57
2019-05-02T00:07:03.579Z,29.97
2019-05-02T00:09:35.041Z,27.80
2019-05-02T00:12:08.837Z,26.97
2019-05-02T00:14:39.629Z,27.57
2019-05-02T00:17:10.261Z,30.03
2019-05-02T00:19:45.179Z,37.30
2019-05-02T00:22:17.242Z,29.77
2019-05-02T00:24:45.126Z,26.47
2019-05-02T00:27:15.845Z,29.43
2019-05-02T00:29:46.289Z,30.77
2019-05-02T00:32:18.337Z,28.80
2019-05-02T00:34:48.884Z,29.80
2019-05-02T00:37:24.714Z,26.93
2019-05-02T00:39:51.547Z,31.03
2019-05-02T00:42:23.840Z,27.97
2019-05-02T00:44:54.228Z,26.10
2019-05-02T00:47:36.765Z,28.70
2019-05-02T00:50:11.207Z,26.27
2019-05-02T00:52:39.801Z,25.67
2019-05-02T00:55:10.489Z,29.30
2019-05-02T00:57:40.872Z,30.90
2019-05-02T01:00:13.513Z,26.17
2019-05-02T01:02:51.917Z,25.60
2019-05-02T01:05:22.366Z,23.67
2019-05-02T01:07:56.042Z,26.57
2019-05-02T01:10:24.948Z,27.50
2019-05-02T01:12:55.607Z,29.27
2019-05-02T01:15:27.133Z,29.67
2019-05-02T01:18:01.142Z,27.50
2019-05-02T01:20:29.669Z,27.43
2019-05-02T01:23:00.004Z,26.30
2019-05-02T01:25:30.364Z,29.67
2019-05-02T01:28:17.512Z,25.57
2019-05-02T01:31:02.308Z,25.93
2019-05-02T01:33:54.439Z,27.80
2019-05-02T01:36:29.741Z,25.67
2019-05-02T01:39:03.024Z,28.47
2019-05-02T01:41:34.019Z,25.20
2019-05-02T01:44:04.524Z,26.97
2019-05-02T01:46:34.887Z,29.30
2019-05-02T01:49:05.705Z,25.73
2019-05-02T01:51:36.921Z,26.63
2019-05-02T01:54:10.070Z,30.83
2019-05-02T01:56:40.147Z,31.20
2019-05-02T01:59:10.569Z,24.10
2019-05-02T02:01:40.997Z,26.03
2019-05-02T02:04:11.495Z,27.33
2019-05-02T02:06:43.354Z,28.97
2019-05-02T02:09:15.063Z,22.80
2019-05-02T02:11:45.563Z,27.90
2019-05-02T02:14:18.618Z,28.13
2019-05-02T02:16:48.596Z,29.50
2019-05-02T02:19:28.335Z,26.23
2019-05-02T02:22:08.579Z,28.43
2019-05-02T02:24:55.973Z,24.40
2019-05-02T02:27:25.703Z,28.03
2019-05-02T02:29:56.269Z,31.93
2019-05-02T02:32:28.564Z,26.90
2019-05-02T02:35:03.399Z,29.13
2019-05-02T02:37:31.079Z,26.77
2019-05-02T02:40:01.460Z,29.17
2019-05-02T02:42:34.079Z,25.17
2019-05-02T02:45:12.826Z,30.90
2019-05-02T02:47:43.175Z,26.50
2019-05-02T02:50:13.633Z,32.30
2019-05-02T02:52:46.843Z,28.47
2019-05-02T02:55:21.377Z,35.37
2019-05-02T02:57:48.066Z,24.77
2019-05-02T03:00:18.642Z,28.03
2019-05-02T03:02:50.133Z,32.77
2019-05-02T03:05:26.297Z,29.17
2019-05-02T03:07:52.703Z,28.73
2019-05-02T03:10:23.048Z,31.85
2019-05-02T03:13:14.897Z,31.07
2019-05-02T03:15:48.211Z,33.23
2019-05-02T03:18:18.766Z,30.67
2019-05-02T03:20:49.207Z,31.40
2019-05-02T03:23:21.770Z,27.20
2019-05-02T03:25:51.854Z,37.00
2019-05-02T03:28:22.164Z,28.93
2019-05-02T03:30:52.723Z,27.93
2019-05-02T03:33:23.958Z,34.27
2019-05-02T03:35:54.407Z,29.97
2019-05-02T03:38:32.667Z,27.20
2019-05-02T03:40:57.291Z,27.93
2019-05-02T03:43:27.950Z,31.80
2019-05-02T03:45:58.361Z,28.40
2019-05-02T03:48:28.853Z,29.87
2019-05-02T03:50:59.434Z,30.47
2019-05-02T03:53:30.167Z,29.73
2019-05-02T03:56:10.445Z,29.13
2019-05-02T03:58:33.223Z,21.13
2019-05-02T04:01:04.020Z,27.60
2019-05-02T04:03:40.758Z,31.53
2019-05-02T04:06:13.652Z,29.00
2019-05-02T04:08:41.639Z,22.33
2019-05-02T04:11:32.847Z,27.80
2019-05-02T04:13:58.941Z,29.77
2019-05-02T04:16:30.228Z,29.97
2019-05-02T04:19:07.205Z,28.27
2019-05-02T04:21:37.579Z,27.20
2019-05-02T04:24:15.069Z,29.73
2019-05-02T04:26:52.690Z,33.87
2019-05-02T04:29:13.300Z,28.73
2019-05-02T04:31:43.657Z,32.27
2019-05-02T04:34:17.432Z,29.87
2019-05-02T04:36:47.118Z,26.57
2019-05-02T04:39:21.422Z,24.47
2019-05-02T04:41:50.293Z,27.00
2019-05-02T04:44:20.662Z,29.90
2019-05-02T04:46:51.250Z,28.20
2019-05-02T04:49:32.913Z,29.33
2019-05-02T04:52:01.844Z,27.10
2019-05-02T04:54:31.533Z,26.53
2019-05-02T04:56:59.113Z,28.40
2019-05-02T04:59:32.934Z,26.07
2019-05-02T05:02:02.043Z,28.40
2019-05-02T05:04:41.899Z,28.47
2019-05-02T05:07:09.044Z,23.10
2019-05-02T05:09:39.882Z,26.07
2019-05-02T05:12:11.293Z,24.40
2019-05-02T05:14:43.189Z,23.87
2019-05-02T05:17:13.995Z,29.63
2019-05-02T05:19:45.146Z,25.27
2019-05-02T05:22:18.457Z,26.00
2019-05-02T05:24:58.528Z,24.13
2019-05-02T05:27:30.173Z,21.27
2019-05-02T05:30:07.840Z,28.23
2019-05-02T05:32:33.559Z,22.13
2019-05-02T05:35:09.181Z,25.77
2019-05-02T05:37:38.246Z,21.87
2019-05-02T05:40:09.290Z,25.63
2019-05-02T05:42:40.197Z,24.82
2019-05-02T05:45:13.779Z,23.97
2019-05-02T05:47:43.873Z,23.67
2019-05-02T05:50:14.698Z,24.43
2019-05-02T05:52:47.184Z,20.00
2019-05-02T05:55:24.018Z,19.07
2019-05-02T05:57:59.699Z,22.30
2019-05-02T06:00:23.330Z,19.63
2019-05-02T06:03:01.174Z,23.33
2019-05-02T06:05:27.643Z,17.67
2019-05-02T06:07:58.221Z,21.03
2019-05-02T06:10:28.677Z,21.53
2019-05-02T06:12:59.095Z,24.40
2019-05-02T06:15:33.937Z,19.70
2019-05-02T06:18:04.707Z,21.77
2019-05-02T06:20:34.670Z,20.53
2019-05-02T06:23:05.090Z,18.63
2019-05-02T06:25:36.762Z,20.70
2019-05-02T06:28:07.518Z,18.80
2019-05-02T06:30:38.209Z,18.10
2019-05-02T06:33:08.637Z,20.70
2019-05-02T06:35:39.091Z,25.40
2019-05-02T06:38:09.646Z,22.62
2019-05-02T06:40:55.800Z,20.10
2019-05-02T06:43:26.174Z,19.65
2019-05-02T06:45:56.523Z,20.12
2019-05-02T06:48:26.921Z,18.07
2019-05-02T06:50:57.746Z,17.03
2019-05-02T06:53:29.198Z,20.65
2019-05-02T06:55:59.639Z,21.70
2019-05-02T06:58:30.518Z,23.57
2019-05-02T07:01:01.861Z,24.95
2019-05-02T07:03:33.335Z,19.92
2019-05-02T07:06:04.554Z,19.20
2019-05-02T07:08:36.054Z,20.32
2019-05-02T07:11:06.656Z,22.35
2019-05-02T07:13:42.118Z,22.95
2019-05-02T07:16:30.290Z,21.10
2019-05-02T07:18:51.746Z,18.92
2019-05-02T07:21:23.588Z,20.37
2019-05-02T07:23:55.218Z,17.85
2019-05-02T07:26:25.761Z,18.87
2019-05-02T07:28:56.214Z,18.48
2019-05-02T07:31:26.556Z,16.42
2019-05-02T07:33:56.968Z,19.25
2019-05-02T07:36:31.142Z,20.62
2019-05-02T07:39:05.112Z,16.48
2019-05-02T07:41:32.822Z,17.12
2019-05-02T07:44:20.420Z,20.37
2019-05-02T07:46:52.225Z,17.57
2019-05-02T07:49:26.748Z,19.82
2019-05-02T07:51:57.672Z,19.75
2019-05-02T07:54:28.238Z,17.30
2019-05-02T07:57:02.180Z,19.95
2019-05-02T07:59:31.542Z,16.42
2019-05-02T08:02:02.492Z,16.05
2019-05-02T08:04:33.427Z,19.77
2019-05-02T08:07:04.149Z,18.82
2019-05-02T08:09:39.328Z,14.60
2019-05-02T08:12:09.694Z,21.93
2019-05-02T08:14:40.329Z,18.00
2019-05-02T08:17:16.896Z,14.78
2019-05-02T08:19:43.298Z,15.68
2019-05-02T08:22:14.990Z,19.40
2019-05-02T08:24:46.664Z,14.15
2019-05-02T08:27:40.561Z,15.78
2019-05-02T08:30:19.647Z,18.10
2019-05-02T08:32:50.089Z,18.27
2019-05-02T08:35:20.566Z,17.32
2019-05-02T08:37:50.908Z,16.37
2019-05-02T08:40:22.441Z,14.98
2019-05-02T08:42:52.908Z,16.07
2019-05-02T08:45:23.363Z,15.60
2019-05-02T08:47:53.764Z,14.87
2019-05-02T08:50:27.124Z,18.73
2019-05-02T08:52:56.218Z,16.10
2019-05-02T08:55:26.602Z,14.83
2019-05-02T08:57:57.037Z,17.48
2019-05-02T09:00:27.463Z,16.12
2019-05-02T09:03:02.608Z,17.98
2019-05-02T09:05:30.021Z,16.23
2019-05-02T09:08:00.384Z,12.60
2019-05-02T09:10:32.124Z,16.85
2019-05-02T09:13:02.728Z,19.57
2019-05-02T09:15:35.236Z,17.65
2019-05-02T09:18:05.306Z,19.80
2019-05-02T09:20:35.699Z,18.30
2019-05-02T09:23:06.099Z,14.60
2019-05-02T09:25:36.559Z,16.73
2019-05-02T09:28:07.028Z,15.05
2019-05-02T09:30:37.533Z,19.10
2019-05-02T09:33:07.361Z,13.32
2019-05-02T09:35:37.793Z,16.12
2019-05-02T09:38:08.236Z,13.80
2019-05-02T09:40:39.750Z,14.80
2019-05-02T09:43:12.023Z,11.35
2019-05-02T09:45:43.977Z,15.85
2019-05-02T09:48:17.214Z,21.48
2019-05-02T09:50:46.668Z,16.30
2019-05-02T09:53:20.540Z,15.65
2019-05-02T09:55:55.033Z,15.32
2019-05-02T09:58:23.852Z,16.67
2019-05-02T10:01:01.836Z,19.05
2019-05-02T10:03:32.086Z,16.70
2019-05-02T10:06:03.294Z,12.60
2019-05-02T10:08:38.011Z,14.93
2019-05-02T10:11:05.923Z,12.65
2019-05-02T10:13:36.444Z,14.55
2019-05-02T10:16:06.810Z,18.02
2019-05-02T10:18:37.299Z,14.85
2019-05-02T10:21:12.611Z,10.72
2019-05-02T10:23:39.889Z,13.78
2019-05-02T10:26:14.700Z,12.88
2019-05-02T10:28:49.600Z,9.58
2019-05-02T10:31:15.131Z,8.78
2019-05-02T10:33:45.543Z,10.55
2019-05-02T10:36:19.696Z,12.18
2019-05-02T10:38:49.031Z,10.40
2019-05-02T10:41:22.292Z,10.35
2019-05-02T10:43:56.693Z,13.72
2019-05-02T10:46:37.575Z,13.62
2019-05-02T10:49:17.316Z,11.65
2019-05-02T10:51:49.614Z,11.20
2019-05-02T10:54:22.516Z,12.37
2019-05-02T10:56:52.175Z,11.73
2019-05-02T10:59:22.583Z,13.53
2019-05-02T11:02:08.360Z,12.55
2019-05-02T11:04:43.072Z,12.23
2019-05-02T11:07:16.943Z,10.93
2019-05-02T11:09:45.567Z,11.90
2019-05-02T11:12:24.290Z,14.47
2019-05-02T11:14:58.669Z,11.78
2019-05-02T11:17:42.225Z,10.95
2019-05-02T11:20:12.676Z,10.30
2019-05-02T11:22:43.138Z,11.25
2019-05-02T11:25:13.619Z,10.23
2019-05-02T11:27:44.173Z,12.23
2019-05-02T11:30:16.796Z,13.90
2019-05-02T11:32:46.806Z,17.10
2019-05-02T11:35:17.312Z,10.48
2019-05-02T11:37:48.877Z,7.80
2019-05-02T11:40:19.278Z,14.70
2019-05-02T11:42:52.159Z,8.45
2019-05-02T11:45:23.821Z,11.88
2019-05-02T11:47:56.023Z,9.85
2019-05-02T11:50:26.793Z,11.73
2019-05-02T11:52:58.791Z,10.95
2019-05-02T11:55:29.407Z,10.23
2019-05-02T11:58:02.411Z,14.07
2019-05-02T12:00:32.430Z,11.30
2019-05-02T12:03:28.217Z,9.80
2019-05-02T12:06:01.827Z,8.05
2019-05-02T12:08:31.946Z,12.60
2019-05-02T12:11:03.926Z,9.13
2019-05-02T12:13:34.431Z,9.98
2019-05-02T12:16:08.604Z,14.33
2019-05-02T12:18:41.914Z,10.00
2019-05-02T12:21:13.033Z,10.50
2019-05-02T12:23:43.414Z,7.67
2019-05-02T12:26:13.844Z,10.90
2019-05-02T12:28:44.242Z,8.75
2019-05-02T12:31:26.996Z,10.70
2019-05-02T12:33:58.554Z,10.50
2019-05-02T12:36:29.507Z,8.90
2019-05-02T12:39:02.445Z,9.63
2019-05-02T12:41:34.378Z,13.03
2019-05-02T12:44:04.971Z,10.13
2019-05-02T12:46:35.433Z,10.90
2019-05-02T12:49:05.965Z,9.15
2019-05-02T12:51:36.376Z,9.53
2019-05-02T12:54:06.904Z,14.18
2019-05-02T12:56:37.253Z,12.53
2019-05-02T12:59:08.190Z,9.58
2019-05-02T13:01:38.985Z,9.25
2019-05-02T13:04:14.072Z,8.13
2019-05-02T13:06:44.972Z,9.63
2019-05-02T13:09:15.723Z,11.08
2019-05-02T13:12:14.518Z,11.40
2019-05-02T13:14:45.457Z,9.10
2019-05-02T13:17:16.140Z,11.22
2019-05-02T13:19:55.735Z,10.00
2019-05-02T13:22:37.273Z,10.68
2019-05-02T13:25:12.913Z,11.43
2019-05-02T13:27:48.030Z,10.23
2019-05-02T13:30:43.001Z,12.37
2019-05-02T13:33:12.104Z,13.93
2019-05-02T13:35:45.917Z,12.15
2019-05-02T13:38:19.664Z,14.83
2019-05-02T13:40:51.754Z,9.08
2019-05-02T13:43:25.592Z,11.90
2019-05-02T13:46:12.458Z,12.88
2019-05-02T13:48:43.003Z,10.72
2019-05-02T13:51:13.735Z,12.33
2019-05-02T13:54:08.901Z,11.60
2019-05-02T13:56:49.324Z,13.05
2019-05-02T13:59:22.231Z,13.05
2019-05-02T14:01:54.509Z,10.45
2019-05-02T14:04:25.102Z,12.60
2019-05-02T14:06:55.780Z,11.40
2019-05-02T14:09:35.425Z,10.15
2019-05-02T14:12:21.859Z,10.60
2019-05-02T14:14:53.662Z,10.90
2019-05-02T14:17:24.254Z,10.10
2019-05-02T14:20:07.866Z,8.88
2019-05-02T14:22:29.890Z,8.83
2019-05-02T14:25:01.914Z,11.83
2019-05-02T14:27:32.791Z,9.43
2019-05-02T14:30:03.146Z,9.70
2019-05-02T14:32:35.102Z,7.15
2019-05-02T14:35:12.262Z,10.88
2019-05-02T14:37:42.713Z,7.42
2019-05-02T14:40:26.380Z,10.18
2019-05-02T14:42:57.802Z,9.48
2019-05-02T14:45:31.464Z,12.33
2019-05-02T14:48:17.960Z,11.60
2019-05-02T14:50:36.454Z,7.05
2019-05-02T14:53:07.569Z,9.18
2019-05-02T14:55:42.122Z,6.87
2019-05-02T14:58:12.754Z,7.55
2019-05-02T15:00:47.915Z,6.75
2019-05-02T15:03:19.139Z,10.05
2019-05-02T15:05:48.992Z,10.48
2019-05-02T15:08:19.523Z,13.28
2019-05-02T15:10:54.428Z,9.78
2019-05-02T15:13:22.960Z,8.48
2019-05-02T15:15:53.594Z,7.10
2019-05-02T15:18:24.032Z,8.75
2019-05-02T15:20:54.489Z,11.68
2019-05-02T15:23:25.029Z,10.25
2019-05-02T15:25:56.742Z,6.50
2019-05-02T15:28:30.551Z,6.05
2019-05-02T15:31:09.106Z,8.95
2019-05-02T15:33:46.292Z,6.62
2019-05-02T15:36:16.788Z,5.80
2019-05-02T15:38:47.567Z,8.18
2019-05-02T15:41:19.082Z,11.03
2019-05-02T15:43:49.532Z,9.10
2019-05-02T15:46:23.870Z,7.10
2019-05-02T15:48:52.131Z,7.97
2019-05-02T15:51:23.078Z,6.80
2019-05-02T15:54:06.066Z,8.65
2019-05-02T15:56:33.299Z,9.68
2019-05-02T15:59:06.334Z,12.00
2019-05-02T16:01:57.266Z,6.87
2019-05-02T16:04:32.092Z,8.50
2019-05-02T16:07:06.997Z,7.60
2019-05-02T16:09:34.769Z,7.17
2019-05-02T16:12:05.763Z,9.05
2019-05-02T16:14:36.495Z,7.25
2019-05-02T16:17:06.902Z,5.67
2019-05-02T16:19:42.718Z,5.72
2019-05-02T16:22:16.180Z,8.30
2019-05-02T16:24:48.722Z,7.42
2019-05-02T16:27:33.060Z,13.80
2019-05-02T16:30:07.400Z,7.25
2019-05-02T16:32:42.124Z,5.60
2019-05-02T16:35:17.455Z,5.47
2019-05-02T16:37:54.635Z,8.03
2019-05-02T16:40:22.066Z,8.60
2019-05-02T16:42:52.297Z,9.28
2019-05-02T16:45:24.296Z,8.05
2019-05-02T16:47:58.918Z,7.65
2019-05-02T16:50:32.278Z,5.47
2019-05-02T16:52:59.809Z,7.08
2019-05-02T16:55:30.181Z,6.60
2019-05-02T16:58:04.803Z,8.93
2019-05-02T17:00:36.958Z,7.53
2019-05-02T17:03:05.793Z,7.37
2019-05-02T17:05:39.504Z,30.48
2019-05-02T17:08:39.606Z,89.03
2019-05-02T17:11:34.193Z,10.85
2019-05-02T17:14:02.380Z,10.00
2019-05-02T17:16:34.529Z,9.25
2019-05-02T17:19:04.978Z,8.33
2019-05-02T17:21:52.353Z,6.83
2019-05-02T17:24:07.689Z,7.72
2019-05-02T17:26:38.177Z,7.78
2019-05-02T17:29:08.651Z,12.68
2019-05-02T17:31:39.216Z,32.50
2019-05-02T17:34:11.907Z,10.53
2019-05-02T17:36:42.763Z,9.68
2019-05-02T17:39:14.114Z,6.22
2019-05-02T17:41:55.818Z,6.67
2019-05-02T17:44:27.959Z,4.03
2019-05-02T17:47:01.460Z,5.12
2019-05-02T17:49:36.447Z,4.72
2019-05-02T17:52:19.075Z,7.90
2019-05-02T17:54:48.065Z,9.03
2019-05-02T17:57:18.441Z,14.25
2019-05-02T17:59:48.921Z,20.05
2019-05-02T18:02:19.903Z,20.25
2019-05-02T18:04:52.079Z,8.03
2019-05-02T18:07:25.250Z,6.00
2019-05-02T18:09:55.403Z,7.67
2019-05-02T18:12:25.806Z,6.78
2019-05-02T18:14:59.129Z,7.17
2019-05-02T18:17:29.158Z,8.60
2019-05-02T18:20:02.214Z,7.40
2019-05-02T18:22:34.923Z,21.42
2019-05-02T18:25:06.264Z,10.63
2019-05-02T18:27:36.697Z,18.10
2019-05-02T18:30:08.432Z,12.50
2019-05-02T18:32:38.911Z,7.37
2019-05-02T18:35:11.713Z,8.18
2019-05-02T18:37:46.764Z,8.60
2019-05-02T18:40:20.203Z,12.13
2019-05-02T18:42:48.150Z,8.50
2019-05-02T18:45:25.404Z,9.00
2019-05-02T18:48:01.011Z,12.53
2019-05-02T18:50:36.828Z,111.12
2019-05-02T18:53:08.881Z,78.40
2019-05-02T18:55:42.178Z,23.77
2019-05-02T18:58:13.117Z,12.65
2019-05-02T19:00:43.770Z,9.95
2019-05-02T19:03:17.096Z,9.18
2019-05-02T19:05:51.512Z,8.35
2019-05-02T19:08:29.093Z,12.63
2019-05-02T19:11:05.373Z,9.75
2019-05-02T19:13:24.659Z,9.43
2019-05-02T19:15:55.261Z,13.93
2019-05-02T19:18:26.060Z,29.27
2019-05-02T19:21:03.271Z,42.62
2019-05-02T19:23:36.026Z,42.75
2019-05-02T19:26:14.699Z,14.07
2019-05-02T19:28:54.849Z,8.85
2019-05-02T19:31:31.934Z,9.75
2019-05-02T19:34:02.405Z,8.98
2019-05-02T19:36:33.017Z,10.20
2019-05-02T19:39:09.575Z,9.78
2019-05-02T19:41:39.079Z,6.78
2019-05-02T19:44:09.285Z,7.47
2019-05-02T19:46:39.868Z,8.60
2019-05-02T19:49:16.315Z,9.30
2019-05-02T19:52:02.074Z,12.60
2019-05-02T19:54:39.567Z,9.28
2019-05-02T19:57:05.148Z,10.88
2019-05-02T19:59:36.033Z,8.88
2019-05-02T20:02:06.665Z,10.95
2019-05-02T20:04:40.753Z,13.15
2019-05-02T20:07:09.359Z,12.53
2019-05-02T20:09:43.656Z,12.45
2019-05-02T20:12:15.523Z,15.43
2019-05-02T20:14:47.541Z,13.28
2019-05-02T20:17:19.982Z,11.50
2019-05-02T20:19:52.908Z,9.93
2019-05-02T20:22:25.213Z,8.58
2019-05-02T20:25:00.075Z,12.65
2019-05-02T20:27:29.647Z,15.45
2019-05-02T20:30:02.786Z,12.13
2019-05-02T20:32:33.198Z,11.60
2019-05-02T20:35:04.076Z,13.27
2019-05-02T20:37:34.922Z,13.90
2019-05-02T20:40:06.047Z,12.50
2019-05-02T20:42:37.006Z,11.70
2019-05-02T20:45:07.912Z,12.60
2019-05-02T20:47:38.386Z,11.25
2019-05-02T20:50:09.064Z,10.05
2019-05-02T20:52:41.487Z,13.78
2019-05-02T20:55:12.300Z,11.90
2019-05-02T20:57:42.895Z,15.83
2019-05-02T21:00:23.543Z,13.05
2019-05-02T21:02:54.240Z,11.88
2019-05-02T21:05:29.557Z,12.07
2019-05-02T21:08:25.701Z,14.18
2019-05-02T21:10:56.696Z,15.23
2019-05-02T21:13:27.111Z,16.03
2019-05-02T21:15:57.670Z,13.20
2019-05-02T21:18:28.476Z,11.53
2019-05-02T21:20:58.991Z,13.17
2019-05-02T21:23:43.411Z,13.75
2019-05-02T21:26:01.873Z,10.97
2019-05-02T21:28:32.513Z,12.40
2019-05-02T21:31:02.982Z,9.67
2019-05-02T21:33:42.739Z,12.00
2019-05-02T21:36:13.387Z,9.80
2019-05-02T21:38:43.720Z,12.25
2019-05-02T21:41:14.686Z,11.37
2019-05-02T21:43:45.150Z,13.45
2019-05-02T21:46:15.598Z,13.13
2019-05-02T21:48:45.985Z,11.17
2019-05-02T21:51:33.997Z,14.83
2019-05-02T21:54:35.435Z,12.47
2019-05-02T21:57:12.148Z,13.50
2019-05-02T21:59:42.695Z,15.97
2019-05-02T22:02:14.023Z,13.17
2019-05-02T22:04:44.461Z,14.00
2019-05-02T22:07:14.855Z,10.00
2019-05-02T22:09:45.285Z,9.83
2019-05-02T22:12:15.758Z,12.53
2019-05-02T22:14:46.321Z,12.60
2019-05-02T22:17:17.166Z,13.73
2019-05-02T22:19:48.668Z,10.58
2019-05-02T22:22:19.030Z,9.70
2019-05-02T22:24:49.376Z,13.77
2019-05-02T22:27:21.668Z,10.70
2019-05-02T22:29:54.548Z,11.40
2019-05-02T22:32:24.057Z,10.40
2019-05-02T22:34:55.957Z,9.93
2019-05-02T22:37:26.586Z,11.33
2019-05-02T22:40:03.649Z,8.08
2019-05-02T22:42:33.378Z,6.43
2019-05-02T22:45:04.762Z,8.23
2019-05-02T22:47:35.276Z,6.53
2019-05-02T22:50:06.257Z,5.90
2019-05-02T22:52:37.141Z,9.50
2019-05-02T22:55:07.752Z,6.47
2019-05-02T22:57:38.160Z,8.30
2019-05-02T23:00:09.297Z,7.13
2019-05-02T23:02:41.909Z,7.03
2019-05-02T23:05:12.574Z,6.20
2019-05-02T23:07:43.000Z,8.67
2019-05-02T23:10:14.055Z,7.17
2019-05-02T23:12:44.445Z,7.17
2019-05-02T23:15:15.237Z,8.33
2019-05-02T23:17:45.578Z,6.90
2019-05-02T23:20:16.429Z,7.13
2019-05-02T23:22:46.798Z,7.17
2019-05-02T23:25:36.088Z,8.70
2019-05-02T23:28:10.938Z,8.53
2019-05-02T23:30:42.429Z,6.70
2019-05-02T23:33:13.046Z,10.73
2019-05-02T23:35:43.560Z,8.20
2019-05-02T23:38:14.236Z,7.27
2019-05-02T23:40:45.052Z,9.57
2019-05-02T23:43:15.952Z,7.43
2019-05-02T23:45:46.548Z,7.10
2019-05-02T23:48:17.289Z,7.50
2019-05-02T23:50:47.934Z,10.85
2019-05-02T23:53:18.869Z,8.80
2019-05-02T23:55:49.332Z,8.90
2019-05-02T23:58:19.950Z,13.13
